メインページ
METAR-TAF:

METAR-TAF

空港 :

ジュノー, アラスカ州, アメリカ合衆国

ジュノー国際空港

緯度: 58-21-17N, 経度: 134-34-34W, 海抜: 6m

現時点の気象観測

当レポートは24分前の22:53(UTC)に作成
西/南西の風 10kt
気温 16°C
湿度 45%
気圧 1024 hPa
視程: 16.1km
高度5500ftの雲はほとんどない
高度25000ftの千切れ雲あり
高度30000ftの千切れ雲あり

METAR: PAJN 272253Z 24010KT 10SM FEW055 BKN250 BKN300 16/04 A3023 RMK AO2 SLP237 SOLAR HALO T01610039

時間: 15:17 (23:17 UTC)

予報

当レポートは5時間43分前の17:34(UTC)に作成
予報は27日の 18時(UTC)から 28日の 18時(UTC)まで有効
西/南西の風 8kt
視程: 10km
高度10000ftの雲はほとんどない
28日の 0400時(UTC)から
北西の風 3kt
視程: 10km
高度10000ftの雲は散在している
28日の 0800時(UTC)から
の風 kt
視程: 10km
高度10000ftの千切れ雲あり
28日の 1600時(UTC)から
西/南西の風 4kt
視程: 10km
高度10000ftの雲は散在している

TAF: PAJN 271734Z 2718/2818 24008KT P6SM FEW100 FM280400 32003KT P6SM SCT100 FM280800 00000KT P6SM BKN100 FM281600 25004KT P6SM SCT100

4,000以上の空港の気象観測と天気予報(METAR報とTAF報)

利用可能な観測所は地図上に黄色い丸と赤い丸で示す。

丸の上にカーソルを重ねると観測所名を参照できる。

次にクリックすると気象観測と天気予報を参照できる。

マップの切り替え:黒色「×」印の緑ボタンをクリックして拡大、「-」印の緑ボタンをクリックして縮小、緑色の三角印をクリックして隣りの地図に切り替え


METAR-TAF: